sensor_id;sensor_type;location;lat;lon;timestamp;P1;durP1;ratioP1;P2;durP2;ratioP2
64061;SDS011;50308;47.438;-1.528;2022-09-09T00:07:07;14.75;;;3.72;;
64061;SDS011;50308;47.438;-1.528;2022-09-09T00:09:46;15.75;;;3.90;;
64061;SDS011;50308;47.438;-1.528;2022-09-09T00:12:17;18.58;;;4.40;;
64061;SDS011;50308;47.438;-1.528;2022-09-09T00:23:29;14.82;;;3.47;;
64061;SDS011;50308;47.438;-1.528;2022-09-09T00:31:43;12.45;;;3.13;;
64061;SDS011;50308;47.438;-1.528;2022-09-09T00:34:21;14.02;;;3.60;;
64061;SDS011;50308;47.438;-1.528;2022-09-09T00:36:57;15.35;;;3.95;;
64061;SDS011;50308;47.438;-1.528;2022-09-09T00:42:26;13.45;;;3.78;;
64061;SDS011;50308;47.438;-1.528;2022-09-09T00:47:52;17.05;;;3.28;;
64061;SDS011;50308;47.438;-1.528;2022-09-09T00:56:00;16.85;;;3.40;;
64061;SDS011;50308;47.438;-1.528;2022-09-09T01:01:41;13.88;;;3.38;;
64061;SDS011;50308;47.438;-1.528;2022-09-09T01:04:09;18.92;;;4.18;;
64061;SDS011;50308;47.438;-1.528;2022-09-09T01:06:41;25.02;;;4.35;;
64061;SDS011;50308;47.438;-1.528;2022-09-09T01:11:55;14.68;;;3.50;;
64061;SDS011;50308;47.438;-1.528;2022-09-09T01:17:07;8.27;;;2.10;;
64061;SDS011;50308;47.438;-1.528;2022-09-09T01:19:40;5.72;;;1.95;;
64061;SDS011;50308;47.438;-1.528;2022-09-09T01:22:33;8.00;;;2.08;;
64061;SDS011;50308;47.438;-1.528;2022-09-09T01:28:01;9.98;;;1.70;;
64061;SDS011;50308;47.438;-1.528;2022-09-09T01:30:32;4.60;;;1.83;;
64061;SDS011;50308;47.438;-1.528;2022-09-09T01:33:01;5.78;;;1.52;;
64061;SDS011;50308;47.438;-1.528;2022-09-09T01:38:12;5.90;;;1.63;;
64061;SDS011;50308;47.438;-1.528;2022-09-09T01:40:39;6.38;;;1.60;;
64061;SDS011;50308;47.438;-1.528;2022-09-09T01:43:05;3.15;;;1.38;;
64061;SDS011;50308;47.438;-1.528;2022-09-09T01:45:32;9.75;;;1.85;;
64061;SDS011;50308;47.438;-1.528;2022-09-09T01:47:59;7.28;;;1.73;;
64061;SDS011;50308;47.438;-1.528;2022-09-09T02:02:21;4.05;;;1.27;;
64061;SDS011;50308;47.438;-1.528;2022-09-09T02:05:09;3.95;;;1.63;;
64061;SDS011;50308;47.438;-1.528;2022-09-09T02:10:16;6.57;;;1.58;;
64061;SDS011;50308;47.438;-1.528;2022-09-09T02:13:16;6.05;;;2.22;;
64061;SDS011;50308;47.438;-1.528;2022-09-09T02:18:12;8.45;;;2.28;;
64061;SDS011;50308;47.438;-1.528;2022-09-09T02:20:40;4.63;;;1.65;;
64061;SDS011;50308;47.438;-1.528;2022-09-09T02:23:08;7.38;;;2.33;;
64061;SDS011;50308;47.438;-1.528;2022-09-09T02:25:36;8.38;;;1.90;;
64061;SDS011;50308;47.438;-1.528;2022-09-09T02:28:03;10.18;;;2.35;;
64061;SDS011;50308;47.438;-1.528;2022-09-09T02:30:32;9.50;;;1.85;;
64061;SDS011;50308;47.438;-1.528;2022-09-09T02:33:00;11.23;;;2.20;;
64061;SDS011;50308;47.438;-1.528;2022-09-09T02:35:29;7.93;;;2.50;;
64061;SDS011;50308;47.438;-1.528;2022-09-09T02:37:56;5.65;;;2.15;;
64061;SDS011;50308;47.438;-1.528;2022-09-09T02:40:26;11.63;;;2.70;;
64061;SDS011;50308;47.438;-1.528;2022-09-09T02:42:53;10.75;;;2.25;;
64061;SDS011;50308;47.438;-1.528;2022-09-09T02:45:20;10.48;;;3.00;;
64061;SDS011;50308;47.438;-1.528;2022-09-09T02:47:51;8.18;;;2.17;;
64061;SDS011;50308;47.438;-1.528;2022-09-09T02:50:39;6.80;;;1.98;;
64061;SDS011;50308;47.438;-1.528;2022-09-09T02:53:19;8.57;;;2.45;;
64061;SDS011;50308;47.438;-1.528;2022-09-09T02:56:08;9.10;;;2.30;;
64061;SDS011;50308;47.438;-1.528;2022-09-09T02:58:40;9.85;;;2.55;;
64061;SDS011;50308;47.438;-1.528;2022-09-09T03:01:07;6.70;;;2.13;;
64061;SDS011;50308;47.438;-1.528;2022-09-09T03:03:33;12.85;;;2.38;;
64061;SDS011;50308;47.438;-1.528;2022-09-09T03:06:00;10.15;;;3.10;;
64061;SDS011;50308;47.438;-1.528;2022-09-09T03:08:26;10.60;;;2.55;;
64061;SDS011;50308;47.438;-1.528;2022-09-09T03:10:53;9.68;;;2.50;;
64061;SDS011;50308;47.438;-1.528;2022-09-09T03:13:19;14.57;;;2.90;;
64061;SDS011;50308;47.438;-1.528;2022-09-09T03:15:47;11.40;;;3.35;;
64061;SDS011;50308;47.438;-1.528;2022-09-09T03:18:13;12.85;;;3.88;;
64061;SDS011;50308;47.438;-1.528;2022-09-09T03:20:39;11.43;;;2.90;;
64061;SDS011;50308;47.438;-1.528;2022-09-09T03:23:07;9.90;;;2.60;;
64061;SDS011;50308;47.438;-1.528;2022-09-09T03:25:34;10.18;;;2.55;;
64061;SDS011;50308;47.438;-1.528;2022-09-09T03:28:00;8.50;;;2.30;;
64061;SDS011;50308;47.438;-1.528;2022-09-09T03:30:27;10.25;;;2.78;;
64061;SDS011;50308;47.438;-1.528;2022-09-09T03:32:53;13.73;;;2.80;;
64061;SDS011;50308;47.438;-1.528;2022-09-09T03:35:20;10.05;;;2.38;;
64061;SDS011;50308;47.438;-1.528;2022-09-09T03:37:47;14.57;;;2.92;;
64061;SDS011;50308;47.438;-1.528;2022-09-09T03:40:15;11.10;;;3.20;;
64061;SDS011;50308;47.438;-1.528;2022-09-09T03:42:49;15.77;;;3.15;;
64061;SDS011;50308;47.438;-1.528;2022-09-09T03:45:17;9.82;;;3.30;;
64061;SDS011;50308;47.438;-1.528;2022-09-09T03:48:07;12.02;;;2.53;;
64061;SDS011;50308;47.438;-1.528;2022-09-09T03:50:50;16.35;;;3.70;;
64061;SDS011;50308;47.438;-1.528;2022-09-09T03:53:19;9.60;;;3.00;;
64061;SDS011;50308;47.438;-1.528;2022-09-09T03:56:15;9.05;;;2.80;;
64061;SDS011;50308;47.438;-1.528;2022-09-09T03:58:41;9.43;;;2.00;;
64061;SDS011;50308;47.438;-1.528;2022-09-09T04:01:09;10.23;;;2.45;;
64061;SDS011;50308;47.438;-1.528;2022-09-09T04:06:14;10.75;;;2.60;;
64061;SDS011;50308;47.438;-1.528;2022-09-09T04:08:54;7.68;;;2.83;;
64061;SDS011;50308;47.438;-1.528;2022-09-09T04:11:22;12.43;;;2.35;;
64061;SDS011;50308;47.438;-1.528;2022-09-09T04:13:54;10.32;;;2.58;;
64061;SDS011;50308;47.438;-1.528;2022-09-09T04:16:26;6.18;;;2.42;;
64061;SDS011;50308;47.438;-1.528;2022-09-09T04:18:54;9.15;;;2.40;;
64061;SDS011;50308;47.438;-1.528;2022-09-09T04:21:24;13.32;;;2.67;;
64061;SDS011;50308;47.438;-1.528;2022-09-09T04:23:53;9.70;;;2.42;;
64061;SDS011;50308;47.438;-1.528;2022-09-09T04:26:20;14.27;;;2.65;;
64061;SDS011;50308;47.438;-1.528;2022-09-09T04:28:48;8.75;;;2.10;;
64061;SDS011;50308;47.438;-1.528;2022-09-09T04:31:18;9.07;;;2.17;;
64061;SDS011;50308;47.438;-1.528;2022-09-09T04:33:49;15.65;;;2.53;;
64061;SDS011;50308;47.438;-1.528;2022-09-09T04:36:17;6.95;;;2.17;;
64061;SDS011;50308;47.438;-1.528;2022-09-09T04:38:51;10.25;;;1.73;;
64061;SDS011;50308;47.438;-1.528;2022-09-09T04:41:19;8.00;;;1.80;;
64061;SDS011;50308;47.438;-1.528;2022-09-09T04:43:51;13.32;;;2.42;;
64061;SDS011;50308;47.438;-1.528;2022-09-09T04:46:20;9.02;;;1.95;;
64061;SDS011;50308;47.438;-1.528;2022-09-09T04:48:49;8.70;;;2.45;;
64061;SDS011;50308;47.438;-1.528;2022-09-09T04:51:21;12.00;;;1.90;;
64061;SDS011;50308;47.438;-1.528;2022-09-09T04:54:22;6.43;;;1.60;;
64061;SDS011;50308;47.438;-1.528;2022-09-09T04:57:01;12.00;;;1.83;;
64061;SDS011;50308;47.438;-1.528;2022-09-09T04:59:45;9.15;;;2.00;;
64061;SDS011;50308;47.438;-1.528;2022-09-09T05:02:21;9.77;;;1.98;;
64061;SDS011;50308;47.438;-1.528;2022-09-09T05:04:48;11.77;;;2.78;;
64061;SDS011;50308;47.438;-1.528;2022-09-09T05:07:15;10.60;;;2.25;;
64061;SDS011;50308;47.438;-1.528;2022-09-09T05:09:42;9.43;;;1.90;;
64061;SDS011;50308;47.438;-1.528;2022-09-09T05:12:10;8.65;;;1.98;;
64061;SDS011;50308;47.438;-1.528;2022-09-09T05:14:38;6.25;;;2.10;;
64061;SDS011;50308;47.438;-1.528;2022-09-09T05:17:18;7.28;;;2.38;;
64061;SDS011;50308;47.438;-1.528;2022-09-09T05:19:53;11.90;;;2.13;;
64061;SDS011;50308;47.438;-1.528;2022-09-09T05:22:20;6.32;;;1.60;;
64061;SDS011;50308;47.438;-1.528;2022-09-09T05:24:51;10.63;;;2.33;;
64061;SDS011;50308;47.438;-1.528;2022-09-09T05:27:19;6.47;;;1.80;;
64061;SDS011;50308;47.438;-1.528;2022-09-09T05:29:47;9.40;;;2.38;;
64061;SDS011;50308;47.438;-1.528;2022-09-09T05:32:14;8.75;;;2.10;;
64061;SDS011;50308;47.438;-1.528;2022-09-09T05:34:42;8.07;;;2.38;;
64061;SDS011;50308;47.438;-1.528;2022-09-09T05:37:09;11.48;;;2.42;;
64061;SDS011;50308;47.438;-1.528;2022-09-09T05:39:35;8.60;;;2.08;;
64061;SDS011;50308;47.438;-1.528;2022-09-09T05:42:04;7.82;;;2.65;;
64061;SDS011;50308;47.438;-1.528;2022-09-09T05:44:30;13.93;;;2.28;;
64061;SDS011;50308;47.438;-1.528;2022-09-09T05:46:58;9.57;;;2.78;;
64061;SDS011;50308;47.438;-1.528;2022-09-09T05:49:24;9.20;;;2.17;;
64061;SDS011;50308;47.438;-1.528;2022-09-09T05:51:50;8.65;;;2.33;;
64061;SDS011;50308;47.438;-1.528;2022-09-09T05:54:16;8.95;;;2.10;;
64061;SDS011;50308;47.438;-1.528;2022-09-09T05:56:44;10.95;;;2.03;;
64061;SDS011;50308;47.438;-1.528;2022-09-09T05:59:14;6.43;;;1.95;;
64061;SDS011;50308;47.438;-1.528;2022-09-09T06:01:40;5.90;;;1.90;;
64061;SDS011;50308;47.438;-1.528;2022-09-09T06:04:07;6.53;;;1.80;;
64061;SDS011;50308;47.438;-1.528;2022-09-09T06:06:37;7.93;;;2.65;;
64061;SDS011;50308;47.438;-1.528;2022-09-09T06:09:11;9.95;;;1.65;;
64061;SDS011;50308;47.438;-1.528;2022-09-09T06:11:42;10.68;;;1.70;;
64061;SDS011;50308;47.438;-1.528;2022-09-09T06:14:11;8.52;;;2.13;;
64061;SDS011;50308;47.438;-1.528;2022-09-09T06:16:46;11.63;;;2.20;;
64061;SDS011;50308;47.438;-1.528;2022-09-09T06:19:15;8.70;;;2.90;;
64061;SDS011;50308;47.438;-1.528;2022-09-09T06:21:52;7.35;;;2.13;;
64061;SDS011;50308;47.438;-1.528;2022-09-09T06:24:23;10.20;;;2.33;;
64061;SDS011;50308;47.438;-1.528;2022-09-09T06:26:58;9.52;;;2.38;;
64061;SDS011;50308;47.438;-1.528;2022-09-09T06:29:27;11.45;;;2.13;;
64061;SDS011;50308;47.438;-1.528;2022-09-09T06:31:55;7.05;;;2.33;;
64061;SDS011;50308;47.438;-1.528;2022-09-09T06:34:30;16.27;;;2.30;;
64061;SDS011;50308;47.438;-1.528;2022-09-09T06:37:02;9.90;;;2.10;;
64061;SDS011;50308;47.438;-1.528;2022-09-09T06:39:32;6.80;;;2.03;;
64061;SDS011;50308;47.438;-1.528;2022-09-09T06:42:06;7.68;;;2.17;;
64061;SDS011;50308;47.438;-1.528;2022-09-09T06:44:33;6.57;;;1.95;;
64061;SDS011;50308;47.438;-1.528;2022-09-09T06:47:00;8.98;;;2.20;;
64061;SDS011;50308;47.438;-1.528;2022-09-09T06:49:26;8.30;;;2.30;;
64061;SDS011;50308;47.438;-1.528;2022-09-09T06:51:52;9.60;;;3.13;;
64061;SDS011;50308;47.438;-1.528;2022-09-09T06:54:23;7.43;;;2.13;;
64061;SDS011;50308;47.438;-1.528;2022-09-09T06:57:06;12.20;;;2.55;;
64061;SDS011;50308;47.438;-1.528;2022-09-09T06:59:32;10.40;;;2.75;;
64061;SDS011;50308;47.438;-1.528;2022-09-09T07:01:58;8.20;;;2.35;;
64061;SDS011;50308;47.438;-1.528;2022-09-09T07:04:24;18.38;;;3.63;;
64061;SDS011;50308;47.438;-1.528;2022-09-09T07:06:50;13.82;;;2.50;;
64061;SDS011;50308;47.438;-1.528;2022-09-09T07:09:17;11.52;;;2.50;;
64061;SDS011;50308;47.438;-1.528;2022-09-09T07:11:50;12.43;;;2.55;;
64061;SDS011;50308;47.438;-1.528;2022-09-09T07:14:18;12.55;;;3.03;;
64061;SDS011;50308;47.438;-1.528;2022-09-09T07:16:45;10.98;;;2.65;;
64061;SDS011;50308;47.438;-1.528;2022-09-09T07:19:11;7.15;;;2.28;;
64061;SDS011;50308;47.438;-1.528;2022-09-09T07:21:39;9.65;;;2.17;;
64061;SDS011;50308;47.438;-1.528;2022-09-09T07:24:08;12.88;;;3.15;;
64061;SDS011;50308;47.438;-1.528;2022-09-09T07:26:36;11.73;;;2.55;;
64061;SDS011;50308;47.438;-1.528;2022-09-09T07:29:03;9.73;;;2.30;;
64061;SDS011;50308;47.438;-1.528;2022-09-09T07:31:32;9.23;;;2.88;;
64061;SDS011;50308;47.438;-1.528;2022-09-09T07:34:00;9.82;;;2.85;;
64061;SDS011;50308;47.438;-1.528;2022-09-09T07:36:28;14.23;;;2.60;;
64061;SDS011;50308;47.438;-1.528;2022-09-09T07:39:01;14.30;;;2.80;;
64061;SDS011;50308;47.438;-1.528;2022-09-09T07:41:33;14.02;;;3.13;;
64061;SDS011;50308;47.438;-1.528;2022-09-09T07:44:05;12.40;;;2.60;;
64061;SDS011;50308;47.438;-1.528;2022-09-09T07:46:32;14.05;;;3.25;;
64061;SDS011;50308;47.438;-1.528;2022-09-09T07:48:59;10.63;;;2.90;;
64061;SDS011;50308;47.438;-1.528;2022-09-09T07:51:27;15.43;;;3.60;;
64061;SDS011;50308;47.438;-1.528;2022-09-09T07:53:56;15.35;;;2.78;;
64061;SDS011;50308;47.438;-1.528;2022-09-09T07:56:24;18.10;;;3.92;;
64061;SDS011;50308;47.438;-1.528;2022-09-09T07:58:52;8.07;;;2.30;;
64061;SDS011;50308;47.438;-1.528;2022-09-09T08:01:20;10.57;;;2.95;;
64061;SDS011;50308;47.438;-1.528;2022-09-09T08:04:01;12.95;;;3.60;;
64061;SDS011;50308;47.438;-1.528;2022-09-09T08:06:34;13.15;;;3.40;;
64061;SDS011;50308;47.438;-1.528;2022-09-09T08:09:02;17.55;;;3.13;;
64061;SDS011;50308;47.438;-1.528;2022-09-09T08:11:29;10.02;;;2.63;;
64061;SDS011;50308;47.438;-1.528;2022-09-09T08:13:58;10.95;;;2.83;;
64061;SDS011;50308;47.438;-1.528;2022-09-09T08:16:31;10.88;;;2.72;;
64061;SDS011;50308;47.438;-1.528;2022-09-09T08:18:58;13.05;;;2.88;;
64061;SDS011;50308;47.438;-1.528;2022-09-09T08:21:27;14.95;;;3.63;;
64061;SDS011;50308;47.438;-1.528;2022-09-09T08:23:55;11.35;;;3.38;;
64061;SDS011;50308;47.438;-1.528;2022-09-09T08:26:23;13.13;;;2.88;;
64061;SDS011;50308;47.438;-1.528;2022-09-09T08:28:51;12.32;;;2.42;;
64061;SDS011;50308;47.438;-1.528;2022-09-09T08:31:22;14.20;;;3.17;;
64061;SDS011;50308;47.438;-1.528;2022-09-09T08:33:49;10.50;;;2.53;;
64061;SDS011;50308;47.438;-1.528;2022-09-09T08:36:17;10.95;;;2.95;;
64061;SDS011;50308;47.438;-1.528;2022-09-09T08:38:50;12.30;;;2.42;;
64061;SDS011;50308;47.438;-1.528;2022-09-09T08:44:31;12.75;;;3.00;;
64061;SDS011;50308;47.438;-1.528;2022-09-09T08:50:08;13.50;;;3.58;;
64061;SDS011;50308;47.438;-1.528;2022-09-09T08:58:17;13.98;;;2.65;;
64061;SDS011;50308;47.438;-1.528;2022-09-09T09:09:11;8.35;;;2.75;;
64061;SDS011;50308;47.438;-1.528;2022-09-09T09:11:58;6.60;;;2.20;;
64061;SDS011;50308;47.438;-1.528;2022-09-09T09:14:30;10.40;;;2.72;;
64061;SDS011;50308;47.438;-1.528;2022-09-09T09:17:00;8.40;;;2.92;;
64061;SDS011;50308;47.438;-1.528;2022-09-09T09:19:33;10.20;;;2.10;;
64061;SDS011;50308;47.438;-1.528;2022-09-09T09:22:12;9.20;;;2.58;;
64061;SDS011;50308;47.438;-1.528;2022-09-09T09:25:01;7.00;;;2.42;;
64061;SDS011;50308;47.438;-1.528;2022-09-09T09:30:29;10.57;;;2.33;;
64061;SDS011;50308;47.438;-1.528;2022-09-09T09:33:02;11.38;;;2.25;;
64061;SDS011;50308;47.438;-1.528;2022-09-09T09:35:33;11.18;;;2.53;;
64061;SDS011;50308;47.438;-1.528;2022-09-09T09:37:59;9.60;;;2.70;;
64061;SDS011;50308;47.438;-1.528;2022-09-09T09:40:26;8.48;;;2.17;;
64061;SDS011;50308;47.438;-1.528;2022-09-09T09:42:59;9.77;;;2.50;;
64061;SDS011;50308;47.438;-1.528;2022-09-09T09:45:32;8.30;;;2.20;;
64061;SDS011;50308;47.438;-1.528;2022-09-09T09:48:11;10.85;;;2.35;;
64061;SDS011;50308;47.438;-1.528;2022-09-09T09:50:51;13.60;;;2.85;;
64061;SDS011;50308;47.438;-1.528;2022-09-09T09:53:32;9.93;;;2.80;;
64061;SDS011;50308;47.438;-1.528;2022-09-09T09:56:09;7.07;;;2.20;;
64061;SDS011;50308;47.438;-1.528;2022-09-09T10:01:22;8.13;;;2.50;;
64061;SDS011;50308;47.438;-1.528;2022-09-09T10:04:13;6.75;;;2.70;;
64061;SDS011;50308;47.438;-1.528;2022-09-09T10:06:43;13.70;;;2.42;;
64061;SDS011;50308;47.438;-1.528;2022-09-09T10:09:26;8.07;;;2.10;;
64061;SDS011;50308;47.438;-1.528;2022-09-09T10:22:52;9.50;;;2.40;;
64061;SDS011;50308;47.438;-1.528;2022-09-09T10:25:43;8.20;;;2.38;;
64061;SDS011;50308;47.438;-1.528;2022-09-09T10:28:50;8.02;;;2.28;;
64061;SDS011;50308;47.438;-1.528;2022-09-09T10:34:19;8.23;;;1.80;;
64061;SDS011;50308;47.438;-1.528;2022-09-09T10:37:11;10.63;;;2.40;;
64061;SDS011;50308;47.438;-1.528;2022-09-09T10:40:06;9.85;;;2.38;;
64061;SDS011;50308;47.438;-1.528;2022-09-09T10:51:46;5.93;;;1.70;;
64061;SDS011;50308;47.438;-1.528;2022-09-09T10:59:48;8.10;;;1.98;;
64061;SDS011;50308;47.438;-1.528;2022-09-09T11:02:32;6.47;;;2.35;;
64061;SDS011;50308;47.438;-1.528;2022-09-09T11:05:05;7.43;;;2.30;;
64061;SDS011;50308;47.438;-1.528;2022-09-09T11:07:52;6.88;;;1.75;;
64061;SDS011;50308;47.438;-1.528;2022-09-09T11:13:35;5.93;;;2.05;;
64061;SDS011;50308;47.438;-1.528;2022-09-09T11:16:14;5.50;;;1.98;;
64061;SDS011;50308;47.438;-1.528;2022-09-09T11:18:51;6.65;;;2.10;;
64061;SDS011;50308;47.438;-1.528;2022-09-09T11:21:27;10.38;;;1.98;;
64061;SDS011;50308;47.438;-1.528;2022-09-09T11:24:04;7.18;;;1.95;;
64061;SDS011;50308;47.438;-1.528;2022-09-09T11:26:55;6.50;;;1.60;;
64061;SDS011;50308;47.438;-1.528;2022-09-09T11:35:21;6.00;;;1.30;;
64061;SDS011;50308;47.438;-1.528;2022-09-09T11:38:25;5.82;;;1.70;;
64061;SDS011;50308;47.438;-1.528;2022-09-09T11:40:57;3.47;;;1.30;;
64061;SDS011;50308;47.438;-1.528;2022-09-09T11:43:31;3.13;;;1.10;;
64061;SDS011;50308;47.438;-1.528;2022-09-09T11:46:03;7.18;;;1.30;;
64061;SDS011;50308;47.438;-1.528;2022-09-09T11:48:33;7.10;;;1.30;;
64061;SDS011;50308;47.438;-1.528;2022-09-09T11:51:08;7.38;;;1.45;;
64061;SDS011;50308;47.438;-1.528;2022-09-09T11:53:47;6.68;;;1.50;;
64061;SDS011;50308;47.438;-1.528;2022-09-09T11:57:01;6.15;;;1.50;;
64061;SDS011;50308;47.438;-1.528;2022-09-09T11:59:28;6.35;;;2.00;;
64061;SDS011;50308;47.438;-1.528;2022-09-09T12:02:02;5.68;;;1.35;;
64061;SDS011;50308;47.438;-1.528;2022-09-09T12:04:39;5.65;;;1.55;;
64061;SDS011;50308;47.438;-1.528;2022-09-09T12:10:04;4.47;;;1.60;;
64061;SDS011;50308;47.438;-1.528;2022-09-09T12:12:50;7.97;;;1.95;;
64061;SDS011;50308;47.438;-1.528;2022-09-09T12:17:48;5.97;;;1.30;;
64061;SDS011;50308;47.438;-1.528;2022-09-09T12:28:17;3.97;;;1.52;;
64061;SDS011;50308;47.438;-1.528;2022-09-09T12:33:36;5.45;;;1.90;;
64061;SDS011;50308;47.438;-1.528;2022-09-09T12:36:05;6.90;;;2.25;;
64061;SDS011;50308;47.438;-1.528;2022-09-09T12:38:38;9.77;;;1.73;;
64061;SDS011;50308;47.438;-1.528;2022-09-09T12:41:15;8.35;;;1.67;;
64061;SDS011;50308;47.438;-1.528;2022-09-09T12:43:48;5.93;;;1.50;;
64061;SDS011;50308;47.438;-1.528;2022-09-09T12:46:23;5.85;;;1.88;;
64061;SDS011;50308;47.438;-1.528;2022-09-09T12:52:00;8.25;;;1.90;;
64061;SDS011;50308;47.438;-1.528;2022-09-09T12:54:47;13.65;;;3.65;;
64061;SDS011;50308;47.438;-1.528;2022-09-09T12:57:13;8.30;;;1.88;;
64061;SDS011;50308;47.438;-1.528;2022-09-09T12:59:41;4.57;;;1.40;;
64061;SDS011;50308;47.438;-1.528;2022-09-09T13:02:20;7.85;;;1.88;;
64061;SDS011;50308;47.438;-1.528;2022-09-09T13:04:48;5.57;;;1.20;;
64061;SDS011;50308;47.438;-1.528;2022-09-09T13:07:18;6.85;;;1.65;;
64061;SDS011;50308;47.438;-1.528;2022-09-09T13:09:47;7.85;;;1.40;;
64061;SDS011;50308;47.438;-1.528;2022-09-09T13:12:23;4.90;;;1.70;;
64061;SDS011;50308;47.438;-1.528;2022-09-09T13:14:52;7.05;;;1.42;;
64061;SDS011;50308;47.438;-1.528;2022-09-09T13:19:52;3.38;;;0.80;;
64061;SDS011;50308;47.438;-1.528;2022-09-09T13:27:34;2.97;;;0.95;;
64061;SDS011;50308;47.438;-1.528;2022-09-09T13:30:20;6.45;;;0.95;;
64061;SDS011;50308;47.438;-1.528;2022-09-09T13:35:35;5.20;;;1.45;;
64061;SDS011;50308;47.438;-1.528;2022-09-09T13:38:14;2.70;;;0.90;;
64061;SDS011;50308;47.438;-1.528;2022-09-09T13:43:27;3.38;;;1.30;;
64061;SDS011;50308;47.438;-1.528;2022-09-09T13:46:24;5.45;;;1.05;;
64061;SDS011;50308;47.438;-1.528;2022-09-09T13:49:18;6.00;;;1.10;;
64061;SDS011;50308;47.438;-1.528;2022-09-09T13:52:01;5.47;;;1.80;;
64061;SDS011;50308;47.438;-1.528;2022-09-09T13:54:32;4.55;;;1.10;;
64061;SDS011;50308;47.438;-1.528;2022-09-09T13:56:58;4.35;;;1.52;;
64061;SDS011;50308;47.438;-1.528;2022-09-09T13:59:26;4.50;;;1.30;;
64061;SDS011;50308;47.438;-1.528;2022-09-09T14:01:52;9.73;;;1.50;;
64061;SDS011;50308;47.438;-1.528;2022-09-09T14:04:18;5.90;;;1.42;;
64061;SDS011;50308;47.438;-1.528;2022-09-09T14:06:47;3.00;;;1.42;;
64061;SDS011;50308;47.438;-1.528;2022-09-09T14:09:16;5.30;;;1.90;;
64061;SDS011;50308;47.438;-1.528;2022-09-09T14:11:43;3.92;;;1.55;;
64061;SDS011;50308;47.438;-1.528;2022-09-09T14:14:11;6.15;;;1.40;;
64061;SDS011;50308;47.438;-1.528;2022-09-09T14:16:40;6.30;;;1.70;;
64061;SDS011;50308;47.438;-1.528;2022-09-09T14:19:10;6.47;;;1.58;;
64061;SDS011;50308;47.438;-1.528;2022-09-09T14:21:36;3.03;;;1.15;;
64061;SDS011;50308;47.438;-1.528;2022-09-09T14:24:03;8.20;;;1.90;;
64061;SDS011;50308;47.438;-1.528;2022-09-09T14:26:32;9.02;;;2.00;;
64061;SDS011;50308;47.438;-1.528;2022-09-09T14:29:00;4.80;;;1.50;;
64061;SDS011;50308;47.438;-1.528;2022-09-09T14:31:30;5.20;;;2.13;;
64061;SDS011;50308;47.438;-1.528;2022-09-09T14:34:04;4.22;;;1.48;;
64061;SDS011;50308;47.438;-1.528;2022-09-09T14:36:32;9.05;;;1.52;;
64061;SDS011;50308;47.438;-1.528;2022-09-09T14:38:59;5.05;;;1.30;;
64061;SDS011;50308;47.438;-1.528;2022-09-09T14:41:27;5.22;;;1.42;;
64061;SDS011;50308;47.438;-1.528;2022-09-09T14:43:54;6.25;;;1.38;;
64061;SDS011;50308;47.438;-1.528;2022-09-09T14:46:21;5.57;;;1.38;;
64061;SDS011;50308;47.438;-1.528;2022-09-09T14:48:49;7.10;;;1.60;;
64061;SDS011;50308;47.438;-1.528;2022-09-09T14:51:20;8.65;;;1.60;;
64061;SDS011;50308;47.438;-1.528;2022-09-09T14:53:51;4.93;;;2.00;;
64061;SDS011;50308;47.438;-1.528;2022-09-09T14:56:20;5.72;;;1.45;;
64061;SDS011;50308;47.438;-1.528;2022-09-09T14:58:49;4.65;;;1.40;;
64061;SDS011;50308;47.438;-1.528;2022-09-09T15:01:18;8.35;;;1.52;;
64061;SDS011;50308;47.438;-1.528;2022-09-09T15:03:53;7.00;;;1.50;;
64061;SDS011;50308;47.438;-1.528;2022-09-09T15:06:27;5.68;;;1.20;;
64061;SDS011;50308;47.438;-1.528;2022-09-09T15:08:55;5.65;;;1.00;;
64061;SDS011;50308;47.438;-1.528;2022-09-09T15:11:26;5.03;;;1.00;;
64061;SDS011;50308;47.438;-1.528;2022-09-09T15:16:23;4.53;;;1.35;;
64061;SDS011;50308;47.438;-1.528;2022-09-09T15:18:53;4.88;;;1.25;;
64061;SDS011;50308;47.438;-1.528;2022-09-09T15:21:22;5.73;;;1.50;;
64061;SDS011;50308;47.438;-1.528;2022-09-09T15:23:50;3.28;;;1.00;;
64061;SDS011;50308;47.438;-1.528;2022-09-09T15:26:17;4.05;;;1.05;;
64061;SDS011;50308;47.438;-1.528;2022-09-09T15:28:44;2.47;;;0.80;;
64061;SDS011;50308;47.438;-1.528;2022-09-09T15:31:16;6.55;;;1.27;;
64061;SDS011;50308;47.438;-1.528;2022-09-09T15:33:47;2.65;;;0.80;;
64061;SDS011;50308;47.438;-1.528;2022-09-09T15:36:18;3.25;;;0.70;;
64061;SDS011;50308;47.438;-1.528;2022-09-09T15:38:47;4.47;;;0.82;;
64061;SDS011;50308;47.438;-1.528;2022-09-09T15:41:16;4.50;;;0.70;;
64061;SDS011;50308;47.438;-1.528;2022-09-09T15:43:47;1.10;;;0.60;;
64061;SDS011;50308;47.438;-1.528;2022-09-09T15:46:50;4.30;;;0.70;;
64061;SDS011;50308;47.438;-1.528;2022-09-09T15:49:20;4.38;;;1.00;;
64061;SDS011;50308;47.438;-1.528;2022-09-09T15:51:52;2.70;;;0.80;;
64061;SDS011;50308;47.438;-1.528;2022-09-09T15:54:23;3.85;;;0.80;;
64061;SDS011;50308;47.438;-1.528;2022-09-09T15:56:54;5.80;;;2.03;;
64061;SDS011;50308;47.438;-1.528;2022-09-09T15:59:22;7.72;;;1.25;;
64061;SDS011;50308;47.438;-1.528;2022-09-09T16:01:51;2.30;;;0.70;;
64061;SDS011;50308;47.438;-1.528;2022-09-09T16:04:18;5.28;;;1.13;;
64061;SDS011;50308;47.438;-1.528;2022-09-09T16:09:19;7.03;;;1.52;;
64061;SDS011;50308;47.438;-1.528;2022-09-09T16:11:47;3.35;;;0.75;;
64061;SDS011;50308;47.438;-1.528;2022-09-09T16:14:14;3.17;;;1.00;;
64061;SDS011;50308;47.438;-1.528;2022-09-09T16:16:42;3.70;;;1.02;;
64061;SDS011;50308;47.438;-1.528;2022-09-09T16:19:10;3.45;;;0.90;;
64061;SDS011;50308;47.438;-1.528;2022-09-09T16:21:44;5.25;;;1.50;;
64061;SDS011;50308;47.438;-1.528;2022-09-09T16:24:13;5.68;;;1.83;;
64061;SDS011;50308;47.438;-1.528;2022-09-09T16:26:42;6.07;;;1.40;;
64061;SDS011;50308;47.438;-1.528;2022-09-09T16:29:10;3.72;;;1.00;;
64061;SDS011;50308;47.438;-1.528;2022-09-09T16:31:37;3.03;;;0.85;;
64061;SDS011;50308;47.438;-1.528;2022-09-09T16:34:06;7.25;;;1.23;;
64061;SDS011;50308;47.438;-1.528;2022-09-09T16:36:35;5.03;;;0.90;;
64061;SDS011;50308;47.438;-1.528;2022-09-09T16:39:07;2.10;;;0.90;;
64061;SDS011;50308;47.438;-1.528;2022-09-09T16:41:40;5.75;;;1.25;;
64061;SDS011;50308;47.438;-1.528;2022-09-09T16:44:09;2.50;;;1.13;;
64061;SDS011;50308;47.438;-1.528;2022-09-09T16:46:38;4.30;;;1.10;;
64061;SDS011;50308;47.438;-1.528;2022-09-09T16:49:07;4.07;;;1.30;;
64061;SDS011;50308;47.438;-1.528;2022-09-09T16:51:41;2.95;;;1.10;;
64061;SDS011;50308;47.438;-1.528;2022-09-09T16:54:20;3.50;;;1.25;;
64061;SDS011;50308;47.438;-1.528;2022-09-09T16:56:48;6.07;;;1.35;;
64061;SDS011;50308;47.438;-1.528;2022-09-09T16:59:15;5.07;;;1.00;;
64061;SDS011;50308;47.438;-1.528;2022-09-09T17:01:42;3.30;;;1.05;;
64061;SDS011;50308;47.438;-1.528;2022-09-09T17:04:13;8.35;;;1.15;;
64061;SDS011;50308;47.438;-1.528;2022-09-09T17:06:48;5.65;;;1.08;;
64061;SDS011;50308;47.438;-1.528;2022-09-09T17:09:15;6.82;;;1.17;;
64061;SDS011;50308;47.438;-1.528;2022-09-09T17:11:42;3.92;;;1.00;;
64061;SDS011;50308;47.438;-1.528;2022-09-09T17:14:10;2.30;;;1.00;;
64061;SDS011;50308;47.438;-1.528;2022-09-09T17:16:39;3.13;;;0.70;;
64061;SDS011;50308;47.438;-1.528;2022-09-09T17:19:06;7.38;;;1.95;;
64061;SDS011;50308;47.438;-1.528;2022-09-09T17:21:33;3.83;;;0.90;;
64061;SDS011;50308;47.438;-1.528;2022-09-09T17:24:00;5.80;;;1.10;;
64061;SDS011;50308;47.438;-1.528;2022-09-09T17:26:27;4.57;;;1.02;;
64061;SDS011;50308;47.438;-1.528;2022-09-09T17:28:55;6.10;;;1.25;;
64061;SDS011;50308;47.438;-1.528;2022-09-09T17:31:23;2.60;;;0.70;;
64061;SDS011;50308;47.438;-1.528;2022-09-09T17:33:52;7.43;;;1.33;;
64061;SDS011;50308;47.438;-1.528;2022-09-09T17:36:23;1.80;;;0.80;;
64061;SDS011;50308;47.438;-1.528;2022-09-09T17:38:54;3.67;;;0.98;;
64061;SDS011;50308;47.438;-1.528;2022-09-09T17:41:25;5.68;;;1.27;;
64061;SDS011;50308;47.438;-1.528;2022-09-09T17:44:09;4.40;;;0.90;;